createdAt,value
2023-11-18T00:02:11.236Z,6.20
2023-11-18T00:04:38.034Z,6.20
2023-11-18T00:07:05.041Z,6.10
2023-11-18T00:09:32.162Z,6.10
2023-11-18T00:11:58.943Z,6.10
2023-11-18T00:14:25.599Z,6.10
2023-11-18T00:16:52.422Z,6.00
2023-11-18T00:19:19.111Z,6.00
2023-11-18T00:21:45.821Z,5.90
2023-11-18T00:24:12.507Z,5.90
2023-11-18T00:26:39.166Z,5.90
2023-11-18T00:29:05.923Z,5.80
2023-11-18T00:31:32.821Z,5.80
2023-11-18T00:33:59.578Z,5.80
2023-11-18T00:36:26.248Z,5.80
2023-11-18T00:38:53.180Z,5.70
2023-11-18T00:41:19.868Z,5.80
2023-11-18T00:43:46.646Z,5.70
2023-11-18T00:46:13.904Z,5.70
2023-11-18T00:48:40.783Z,5.70
2023-11-18T00:51:08.041Z,5.70
2023-11-18T00:53:37.603Z,5.70
2023-11-18T00:56:09.110Z,5.70
2023-11-18T00:58:40.284Z,5.80
2023-11-18T01:01:07.790Z,5.70
2023-11-18T01:03:35.434Z,5.70
2023-11-18T01:06:02.184Z,5.70
2023-11-18T01:08:29.084Z,5.70
2023-11-18T01:10:55.814Z,5.70
2023-11-18T01:13:22.625Z,5.60
2023-11-18T01:15:50.589Z,5.60
2023-11-18T01:18:18.024Z,5.50
2023-11-18T01:20:44.958Z,5.50
2023-11-18T01:23:11.639Z,5.50
2023-11-18T01:25:38.320Z,5.40
2023-11-18T01:28:05.239Z,5.40
2023-11-18T01:30:32.126Z,5.30
2023-11-18T01:32:58.924Z,5.40
2023-11-18T01:35:27.770Z,5.30
2023-11-18T01:37:55.893Z,5.30
2023-11-18T01:40:22.618Z,5.20
2023-11-18T01:42:49.297Z,5.20
2023-11-18T01:45:17.562Z,5.10
2023-11-18T01:47:45.702Z,5.10
2023-11-18T01:50:15.439Z,5.10
2023-11-18T01:52:46.618Z,5.10
2023-11-18T01:55:14.378Z,5.00
2023-11-18T01:57:44.587Z,5.00
2023-11-18T02:00:13.199Z,4.90
2023-11-18T02:02:40.947Z,4.90
2023-11-18T02:05:08.768Z,4.90
2023-11-18T02:07:39.843Z,4.80
2023-11-18T02:10:10.712Z,4.80
2023-11-18T02:12:49.687Z,4.80
2023-11-18T02:15:18.817Z,4.80
2023-11-18T02:17:48.078Z,4.90
2023-11-18T02:20:17.865Z,4.90
2023-11-18T02:22:47.679Z,4.80
2023-11-18T02:25:19.527Z,4.80
2023-11-18T02:27:49.237Z,4.80
2023-11-18T02:30:18.201Z,4.80
2023-11-18T02:32:55.225Z,4.80
2023-11-18T02:35:28.403Z,4.70
2023-11-18T02:37:56.356Z,4.70
2023-11-18T02:40:33.158Z,4.70
2023-11-18T02:43:02.321Z,4.70
2023-11-18T02:45:29.447Z,4.70
2023-11-18T02:47:59.059Z,4.70
2023-11-18T02:50:26.421Z,4.60
2023-11-18T02:52:53.234Z,4.60
2023-11-18T02:55:22.136Z,4.60
2023-11-18T02:57:49.153Z,4.60
2023-11-18T03:00:22.712Z,4.60
2023-11-18T03:02:52.488Z,4.60
2023-11-18T03:05:19.924Z,4.60
2023-11-18T03:07:50.775Z,4.60
2023-11-18T03:10:27.315Z,4.60
2023-11-18T03:12:55.304Z,4.50
2023-11-18T03:15:23.573Z,4.40
2023-11-18T03:17:51.758Z,4.50
2023-11-18T03:20:19.822Z,4.50
2023-11-18T03:22:51.023Z,4.50
2023-11-18T03:25:18.760Z,4.40
2023-11-18T03:27:45.713Z,4.40
2023-11-18T03:30:12.789Z,4.40
2023-11-18T03:32:43.679Z,4.40
2023-11-18T03:35:10.885Z,4.40
2023-11-18T03:37:40.195Z,4.30
2023-11-18T03:40:14.365Z,4.30
2023-11-18T03:42:44.560Z,4.30
2023-11-18T03:45:11.572Z,4.30
2023-11-18T03:47:38.945Z,4.20
2023-11-18T03:50:06.747Z,4.20
2023-11-18T03:52:35.489Z,4.20
2023-11-18T03:55:04.301Z,4.20
2023-11-18T03:57:31.060Z,4.10
2023-11-18T03:59:57.776Z,4.10
2023-11-18T04:02:24.485Z,4.10
2023-11-18T04:04:51.337Z,4.10
2023-11-18T04:07:18.110Z,4.10
2023-11-18T04:09:45.073Z,4.00
2023-11-18T04:12:11.918Z,4.00
2023-11-18T04:14:39.062Z,4.00
2023-11-18T04:17:06.319Z,4.00
2023-11-18T04:19:33.199Z,4.10
2023-11-18T04:22:00.027Z,4.10
2023-11-18T04:24:26.703Z,4.10
2023-11-18T04:26:53.349Z,4.10
2023-11-18T04:29:20.166Z,4.10
2023-11-18T04:31:46.959Z,4.10
2023-11-18T04:34:14.582Z,4.10
2023-11-18T04:36:42.792Z,4.10
2023-11-18T04:39:12.610Z,4.20
2023-11-18T04:41:39.527Z,4.20
2023-11-18T04:44:06.600Z,4.20
2023-11-18T04:46:33.373Z,4.10
2023-11-18T04:49:00.792Z,4.10
2023-11-18T04:51:27.503Z,4.10
2023-11-18T04:53:54.180Z,4.10
2023-11-18T04:56:20.917Z,4.10
2023-11-18T04:58:48.619Z,4.10
2023-11-18T05:01:15.894Z,4.10
2023-11-18T05:03:42.932Z,4.10
2023-11-18T05:06:09.868Z,4.10
2023-11-18T05:08:37.550Z,4.20
2023-11-18T05:11:06.022Z,4.20
2023-11-18T05:13:34.963Z,4.20
2023-11-18T05:16:02.895Z,4.20
2023-11-18T05:18:34.519Z,4.20
2023-11-18T05:21:01.684Z,4.20
2023-11-18T05:23:30.538Z,4.30
2023-11-18T05:25:57.267Z,4.30
2023-11-18T05:28:25.176Z,4.30
2023-11-18T05:30:52.191Z,4.40
2023-11-18T05:33:20.300Z,4.40
2023-11-18T05:35:50.492Z,4.50
2023-11-18T05:38:22.755Z,4.50
2023-11-18T05:40:57.329Z,4.40
2023-11-18T05:43:37.642Z,4.50
2023-11-18T05:46:25.340Z,4.40
2023-11-18T05:48:53.640Z,4.30
2023-11-18T05:51:25.166Z,4.30
2023-11-18T05:53:53.038Z,4.30
2023-11-18T05:56:23.207Z,4.30
2023-11-18T05:58:50.050Z,4.30
2023-11-18T06:01:17.938Z,4.30
2023-11-18T06:03:44.790Z,4.20
2023-11-18T06:06:13.500Z,4.20
2023-11-18T06:08:44.755Z,4.20
2023-11-18T06:11:17.237Z,4.20
2023-11-18T06:13:49.558Z,4.30
2023-11-18T06:16:18.245Z,4.30
2023-11-18T06:18:45.814Z,4.30
2023-11-18T06:21:17.024Z,4.30
2023-11-18T06:23:44.344Z,4.40
2023-11-18T06:26:11.435Z,4.40
2023-11-18T06:28:42.446Z,4.30
2023-11-18T06:31:12.787Z,4.30
2023-11-18T06:33:43.907Z,4.30
2023-11-18T06:36:17.977Z,4.30
2023-11-18T06:38:45.517Z,4.20
2023-11-18T06:41:14.482Z,4.20
2023-11-18T06:43:58.067Z,4.30
2023-11-18T06:46:34.689Z,4.30
2023-11-18T06:49:07.705Z,4.30
2023-11-18T06:51:37.619Z,4.30
2023-11-18T06:54:14.931Z,4.30
2023-11-18T06:56:45.984Z,4.30
2023-11-18T06:59:14.654Z,4.30
2023-11-18T07:01:44.920Z,4.30
2023-11-18T07:04:12.195Z,4.30
2023-11-18T07:06:39.313Z,4.30
2023-11-18T07:09:14.442Z,4.30
2023-11-18T07:11:42.007Z,4.40
2023-11-18T07:14:10.529Z,4.40
2023-11-18T07:16:42.038Z,4.40
2023-11-18T07:19:09.061Z,4.40
2023-11-18T07:21:36.001Z,4.50
2023-11-18T07:24:05.676Z,4.50
2023-11-18T07:26:32.363Z,4.50
2023-11-18T07:28:59.062Z,4.50
2023-11-18T07:31:26.151Z,4.60
2023-11-18T07:33:53.637Z,4.60
2023-11-18T07:36:23.415Z,4.70
2023-11-18T07:38:52.873Z,4.70
2023-11-18T07:41:25.859Z,4.70
2023-11-18T07:43:56.828Z,4.80
2023-11-18T07:46:24.413Z,4.90
2023-11-18T07:48:53.063Z,4.90
2023-11-18T07:51:24.237Z,5.00
2023-11-18T07:53:51.531Z,5.00
2023-11-18T07:56:18.662Z,5.10
2023-11-18T07:58:48.618Z,5.20
2023-11-18T08:01:19.184Z,5.20
2023-11-18T08:03:46.324Z,5.30
2023-11-18T08:06:14.487Z,5.30
2023-11-18T08:08:42.063Z,5.30
2023-11-18T08:11:12.136Z,5.50
2023-11-18T08:13:38.959Z,5.50
2023-11-18T08:16:08.402Z,5.50
2023-11-18T08:18:36.724Z,5.60
2023-11-18T08:21:04.064Z,5.60
2023-11-18T08:23:32.740Z,5.60
2023-11-18T08:26:00.045Z,5.60
2023-11-18T08:28:26.947Z,5.60
2023-11-18T08:30:53.967Z,5.60
2023-11-18T08:33:21.917Z,5.70
2023-11-18T08:35:50.132Z,5.60
2023-11-18T08:38:16.961Z,5.60
2023-11-18T08:40:44.081Z,5.70
2023-11-18T08:43:12.595Z,5.70
2023-11-18T08:45:40.257Z,5.70
2023-11-18T08:48:09.515Z,5.70
2023-11-18T08:50:38.003Z,5.70
2023-11-18T08:53:06.451Z,5.80
2023-11-18T08:55:41.234Z,5.70
2023-11-18T08:58:19.675Z,5.80
2023-11-18T09:00:56.040Z,5.80
2023-11-18T09:03:28.006Z,5.80
2023-11-18T09:06:00.742Z,5.80
2023-11-18T09:08:28.460Z,5.80
2023-11-18T09:10:55.652Z,5.80
2023-11-18T09:13:29.829Z,5.90
2023-11-18T09:16:01.634Z,6.00
2023-11-18T09:18:33.565Z,6.00
2023-11-18T09:21:02.230Z,6.10
2023-11-18T09:23:30.948Z,6.20
2023-11-18T09:25:57.719Z,6.20
2023-11-18T09:28:25.660Z,6.30
2023-11-18T09:30:54.703Z,6.40
2023-11-18T09:33:33.794Z,6.40
2023-11-18T09:36:08.460Z,6.50
2023-11-18T09:38:41.541Z,6.50
2023-11-18T09:41:12.411Z,6.60
2023-11-18T09:43:44.485Z,6.70
2023-11-18T09:46:15.012Z,6.70
2023-11-18T09:48:48.337Z,6.70
2023-11-18T09:51:24.510Z,6.80
2023-11-18T09:53:57.070Z,6.80
2023-11-18T09:56:40.261Z,6.80
2023-11-18T09:59:20.542Z,6.90
2023-11-18T10:01:54.849Z,7.00
2023-11-18T10:04:22.523Z,7.10
2023-11-18T10:06:53.675Z,7.10
2023-11-18T10:09:29.250Z,7.10
2023-11-18T10:12:06.954Z,7.20
2023-11-18T10:14:37.371Z,7.20
2023-11-18T10:17:08.323Z,7.30
2023-11-18T10:19:58.526Z,7.40
2023-11-18T10:22:28.470Z,7.40
2023-11-18T10:24:56.334Z,7.50
2023-11-18T10:27:27.534Z,7.60
2023-11-18T10:29:58.564Z,7.60
2023-11-18T10:32:29.348Z,7.70
2023-11-18T10:34:59.430Z,7.60
2023-11-18T10:37:27.202Z,7.70
2023-11-18T10:39:54.170Z,7.70
2023-11-18T10:42:21.038Z,7.80
2023-11-18T10:45:00.455Z,7.80
2023-11-18T10:47:27.866Z,7.80
2023-11-18T10:49:57.258Z,7.80
2023-11-18T10:52:26.853Z,7.90
2023-11-18T10:54:57.125Z,7.90
2023-11-18T10:57:25.621Z,7.90
2023-11-18T11:00:04.601Z,7.90
2023-11-18T11:02:36.259Z,7.90
2023-11-18T11:05:03.739Z,7.90
2023-11-18T11:07:32.155Z,7.80
2023-11-18T11:10:00.410Z,7.80
2023-11-18T11:12:31.047Z,7.90
2023-11-18T11:15:09.080Z,7.90
2023-11-18T11:17:41.093Z,7.90
2023-11-18T11:20:31.277Z,7.90
2023-11-18T11:23:10.081Z,7.90
2023-11-18T11:26:05.660Z,7.80
2023-11-18T11:28:44.764Z,7.80
2023-11-18T11:31:39.971Z,7.90
2023-11-18T11:34:12.089Z,7.90
2023-11-18T11:36:51.762Z,7.90
2023-11-18T11:39:26.373Z,7.90
2023-11-18T11:41:57.835Z,7.90
2023-11-18T11:44:31.791Z,8.00
2023-11-18T11:47:01.940Z,8.00
2023-11-18T11:49:38.048Z,8.00
2023-11-18T11:52:16.081Z,8.00
2023-11-18T11:55:07.685Z,8.00
2023-11-18T11:57:40.257Z,8.00
2023-11-18T12:00:17.573Z,8.00
2023-11-18T12:02:55.835Z,8.00
2023-11-18T12:05:27.304Z,8.00
2023-11-18T12:07:57.760Z,8.00
2023-11-18T12:10:33.669Z,8.00
2023-11-18T12:13:17.199Z,8.00
2023-11-18T12:16:07.039Z,8.00
2023-11-18T12:18:35.193Z,8.00
2023-11-18T12:21:05.154Z,8.10
2023-11-18T12:23:35.334Z,8.10
2023-11-18T12:26:04.165Z,8.20
2023-11-18T12:28:39.255Z,8.20
2023-11-18T12:31:07.453Z,8.20
2023-11-18T12:33:57.917Z,8.20
2023-11-18T12:36:44.690Z,8.20
2023-11-18T12:39:51.829Z,8.20
2023-11-18T12:42:49.817Z,8.20
2023-11-18T12:46:01.311Z,8.20
2023-11-18T12:48:33.612Z,8.20
2023-11-18T12:51:01.463Z,8.30
2023-11-18T12:53:29.649Z,8.20
2023-11-18T12:55:58.063Z,8.30
2023-11-18T12:58:24.789Z,8.30
2023-11-18T13:00:51.441Z,8.30
2023-11-18T13:03:18.987Z,8.40
2023-11-18T13:05:46.358Z,8.40
2023-11-18T13:08:16.722Z,8.40
2023-11-18T13:10:45.343Z,8.50
2023-11-18T13:13:15.002Z,8.60
2023-11-18T13:15:41.904Z,8.70
2023-11-18T13:18:08.670Z,8.70
2023-11-18T13:20:38.618Z,8.60
2023-11-18T13:23:10.157Z,8.60
2023-11-18T13:25:40.035Z,8.70
2023-11-18T13:28:11.106Z,8.70
2023-11-18T13:30:40.817Z,8.70
2023-11-18T13:33:08.975Z,8.70
2023-11-18T13:35:36.834Z,8.80
2023-11-18T13:38:06.043Z,8.80
2023-11-18T13:40:49.077Z,8.80
2023-11-18T13:43:16.131Z,8.90
2023-11-18T13:45:47.109Z,8.90
2023-11-18T13:48:14.752Z,8.90
2023-11-18T13:50:44.096Z,8.90
2023-11-18T13:53:11.892Z,9.00
2023-11-18T13:55:39.679Z,8.90
2023-11-18T13:58:07.227Z,8.90
2023-11-18T14:00:35.249Z,9.00
2023-11-18T14:03:04.881Z,9.00
2023-11-18T14:05:34.837Z,9.00
2023-11-18T14:08:04.204Z,9.00
2023-11-18T14:10:30.831Z,9.00
2023-11-18T14:13:06.997Z,9.00
2023-11-18T14:15:36.704Z,9.00
2023-11-18T14:18:04.645Z,9.00
2023-11-18T14:20:32.401Z,9.00
2023-11-18T14:22:59.824Z,9.10
2023-11-18T14:25:28.386Z,9.10
2023-11-18T14:27:55.059Z,9.10
2023-11-18T14:30:25.289Z,9.20
2023-11-18T14:32:52.947Z,9.10
2023-11-18T14:35:19.824Z,9.10
2023-11-18T14:37:46.746Z,9.10
2023-11-18T14:40:14.788Z,9.10
2023-11-18T14:42:46.758Z,9.00
2023-11-18T14:45:17.659Z,9.00
2023-11-18T14:47:49.528Z,9.00
2023-11-18T14:50:21.077Z,9.00
2023-11-18T14:52:49.817Z,9.00
2023-11-18T14:55:18.399Z,9.00
2023-11-18T14:57:48.249Z,9.00
2023-11-18T15:00:23.077Z,9.00
2023-11-18T15:02:51.805Z,9.00
2023-11-18T15:05:20.678Z,9.00
2023-11-18T15:07:55.793Z,9.00
2023-11-18T15:10:24.422Z,8.90
2023-11-18T15:13:02.577Z,8.90
2023-11-18T15:15:35.725Z,8.90
2023-11-18T15:18:10.969Z,8.90
2023-11-18T15:20:38.208Z,9.00
2023-11-18T15:23:06.162Z,8.90
2023-11-18T15:25:33.203Z,8.90
2023-11-18T15:28:00.075Z,8.90
2023-11-18T15:30:28.105Z,8.90
2023-11-18T15:32:55.639Z,8.90
2023-11-18T15:35:22.495Z,8.90
2023-11-18T15:37:49.662Z,8.90
2023-11-18T15:40:20.802Z,8.90
2023-11-18T15:42:52.086Z,8.90
2023-11-18T15:45:20.910Z,8.90
2023-11-18T15:50:17.332Z,8.80
2023-11-18T15:52:44.631Z,8.90
2023-11-18T15:55:14.857Z,8.90
2023-11-18T15:57:56.457Z,8.80
2023-11-18T16:00:27.482Z,8.90
2023-11-18T16:02:57.523Z,8.80
2023-11-18T16:05:28.240Z,8.80
2023-11-18T16:07:57.934Z,8.80
2023-11-18T16:10:25.760Z,8.80
2023-11-18T16:12:54.033Z,8.80
2023-11-18T16:15:24.891Z,8.80
2023-11-18T16:17:53.118Z,8.80
2023-11-18T16:20:21.965Z,8.70
2023-11-18T16:22:50.612Z,8.70
2023-11-18T16:25:24.318Z,8.70
2023-11-18T16:27:52.503Z,8.80
2023-11-18T16:30:25.827Z,8.70
2023-11-18T16:32:53.283Z,8.80
2023-11-18T16:35:23.651Z,8.80
2023-11-18T16:37:51.916Z,8.70
2023-11-18T16:40:24.765Z,8.70
2023-11-18T16:42:57.069Z,8.80
2023-11-18T16:45:25.474Z,8.70
2023-11-18T16:47:53.943Z,8.80
2023-11-18T16:50:23.651Z,8.80
2023-11-18T16:52:51.704Z,8.80
2023-11-18T16:55:18.821Z,8.80
2023-11-18T16:57:46.843Z,8.80
2023-11-18T17:00:18.509Z,8.80
2023-11-18T17:02:46.277Z,8.80
2023-11-18T17:05:13.178Z,8.80
2023-11-18T17:07:40.024Z,8.80
2023-11-18T17:10:12.438Z,8.70
2023-11-18T17:12:43.531Z,8.70
2023-11-18T17:15:17.483Z,8.80
2023-11-18T17:17:48.825Z,8.80
2023-11-18T17:20:17.393Z,8.80
2023-11-18T17:22:44.785Z,8.80
2023-11-18T17:25:16.327Z,8.70
2023-11-18T17:27:44.867Z,8.70
2023-11-18T17:30:13.714Z,8.70
2023-11-18T17:32:41.888Z,8.60
2023-11-18T17:35:16.096Z,8.60
2023-11-18T17:37:47.675Z,8.60
2023-11-18T17:40:19.048Z,8.60
2023-11-18T17:42:46.392Z,8.60
2023-11-18T17:45:14.015Z,8.50
2023-11-18T17:47:45.658Z,8.50
2023-11-18T17:50:18.352Z,8.40
2023-11-18T17:52:47.485Z,8.40
2023-11-18T17:55:14.428Z,8.40
2023-11-18T17:57:44.979Z,8.40
2023-11-18T18:00:21.479Z,8.30
2023-11-18T18:02:48.844Z,8.30
2023-11-18T18:05:16.377Z,8.30
2023-11-18T18:07:43.229Z,8.40
2023-11-18T18:10:10.939Z,8.30
2023-11-18T18:12:38.174Z,8.40
2023-11-18T18:15:11.739Z,8.40
2023-11-18T18:17:39.041Z,8.40
2023-11-18T18:20:09.988Z,8.40
2023-11-18T18:22:40.366Z,8.40
2023-11-18T18:25:07.935Z,8.50
2023-11-18T18:27:35.978Z,8.50
2023-11-18T18:30:03.578Z,8.40
2023-11-18T18:32:30.500Z,8.50
2023-11-18T18:34:57.946Z,8.40
2023-11-18T18:37:26.557Z,8.50
2023-11-18T18:39:56.744Z,8.40
2023-11-18T18:42:24.058Z,8.40
2023-11-18T18:44:50.872Z,8.40
2023-11-18T18:47:19.528Z,8.40
2023-11-18T18:49:48.645Z,8.50
2023-11-18T18:52:15.597Z,8.50
2023-11-18T18:54:42.265Z,8.50
2023-11-18T18:57:08.996Z,8.50
2023-11-18T18:59:36.873Z,8.40
2023-11-18T19:02:03.681Z,8.40
2023-11-18T19:04:30.372Z,8.50
2023-11-18T19:06:57.052Z,8.40
2023-11-18T19:09:23.743Z,8.40
2023-11-18T19:11:50.462Z,8.40
2023-11-18T19:14:17.400Z,8.40
2023-11-18T19:16:44.677Z,8.30
2023-11-18T19:19:11.382Z,8.40
2023-11-18T19:21:38.366Z,8.30
2023-11-18T19:24:05.468Z,8.30
2023-11-18T19:26:37.183Z,8.30
2023-11-18T19:29:04.610Z,8.30
2023-11-18T19:31:31.516Z,8.30
2023-11-18T19:33:59.485Z,8.30
2023-11-18T19:36:26.649Z,8.30
2023-11-18T19:38:53.441Z,8.30
2023-11-18T19:41:20.208Z,8.30
2023-11-18T19:43:47.158Z,8.30
2023-11-18T19:46:13.910Z,8.30
2023-11-18T19:48:40.595Z,8.30
2023-11-18T19:51:09.127Z,8.30
2023-11-18T19:53:36.048Z,8.30
2023-11-18T19:56:02.868Z,8.30
2023-11-18T19:58:29.605Z,8.30
2023-11-18T20:00:56.559Z,8.40
2023-11-18T20:03:23.506Z,8.40
2023-11-18T20:05:50.881Z,8.30
2023-11-18T20:08:20.577Z,8.30
2023-11-18T20:10:48.402Z,8.30
2023-11-18T20:13:16.045Z,8.30
2023-11-18T20:15:42.940Z,8.40
2023-11-18T20:18:12.738Z,8.40
2023-11-18T20:20:39.694Z,8.30
2023-11-18T20:23:07.045Z,8.40
2023-11-18T20:25:34.945Z,8.30
2023-11-18T20:28:02.107Z,8.30
2023-11-18T20:30:28.794Z,8.40
2023-11-18T20:32:57.070Z,8.40
2023-11-18T20:35:25.252Z,8.40
2023-11-18T20:37:52.539Z,8.40
2023-11-18T20:40:22.420Z,8.50
2023-11-18T20:42:50.231Z,8.50
2023-11-18T20:45:19.089Z,8.60
2023-11-18T20:47:47.331Z,8.60
2023-11-18T20:50:14.908Z,8.70
2023-11-18T20:52:43.090Z,8.70
2023-11-18T20:55:10.426Z,8.70
2023-11-18T20:57:40.392Z,8.70
2023-11-18T21:00:08.802Z,8.70
2023-11-18T21:02:36.128Z,8.70
2023-11-18T21:05:09.546Z,8.70
2023-11-18T21:07:36.703Z,8.60
2023-11-18T21:10:05.771Z,8.60
2023-11-18T21:12:33.473Z,8.60
2023-11-18T21:15:02.834Z,8.40
2023-11-18T21:17:30.264Z,8.40
2023-11-18T21:19:57.282Z,8.40
2023-11-18T21:22:24.361Z,8.30
2023-11-18T21:24:51.645Z,8.30
2023-11-18T21:27:18.562Z,8.30
2023-11-18T21:29:45.487Z,8.30
2023-11-18T21:32:12.451Z,8.30
2023-11-18T21:34:41.955Z,8.30
2023-11-18T21:37:12.123Z,8.30
2023-11-18T21:39:42.182Z,8.30
2023-11-18T21:42:09.502Z,8.30
2023-11-18T21:44:37.111Z,8.30
2023-11-18T21:47:04.460Z,8.30
2023-11-18T21:49:31.501Z,8.30
2023-11-18T21:51:58.300Z,8.30
2023-11-18T21:54:26.219Z,8.40
2023-11-18T21:56:53.488Z,8.40
2023-11-18T21:59:20.207Z,8.40
2023-11-18T22:01:46.911Z,8.40
2023-11-18T22:04:13.712Z,8.40
2023-11-18T22:06:40.421Z,8.40
2023-11-18T22:09:07.165Z,8.40
2023-11-18T22:11:37.343Z,8.40
2023-11-18T22:14:04.660Z,8.40
2023-11-18T22:16:31.569Z,8.50
2023-11-18T22:18:58.851Z,8.50
2023-11-18T22:21:28.267Z,8.50
2023-11-18T22:23:55.052Z,8.50
2023-11-18T22:26:23.172Z,8.50
2023-11-18T22:28:50.146Z,8.60
2023-11-18T22:31:17.720Z,8.50
2023-11-18T22:33:44.519Z,8.50
2023-11-18T22:36:11.383Z,8.60
2023-11-18T22:38:39.157Z,8.50
2023-11-18T22:41:08.590Z,8.50
2023-11-18T22:43:35.513Z,8.50
2023-11-18T22:46:02.633Z,8.50
2023-11-18T22:48:29.401Z,8.60
2023-11-18T22:50:56.034Z,8.50
2023-11-18T22:53:23.251Z,8.50
2023-11-18T22:55:51.788Z,8.60
2023-11-18T22:58:18.595Z,8.50
2023-11-18T23:00:52.387Z,8.60
2023-11-18T23:03:20.387Z,8.60
2023-11-18T23:05:48.004Z,8.70
2023-11-18T23:08:18.302Z,8.70
2023-11-18T23:10:47.276Z,8.70
2023-11-18T23:13:14.937Z,8.70
2023-11-18T23:15:42.136Z,8.70
2023-11-18T23:18:10.497Z,8.80
2023-11-18T23:20:37.912Z,8.80
2023-11-18T23:23:06.090Z,8.80
2023-11-18T23:25:34.794Z,8.80
2023-11-18T23:28:03.396Z,8.80
2023-11-18T23:30:32.712Z,8.80
2023-11-18T23:32:59.636Z,8.80
2023-11-18T23:35:26.413Z,8.80
2023-11-18T23:37:53.286Z,8.80
2023-11-18T23:40:21.091Z,8.80
2023-11-18T23:42:49.262Z,8.80
2023-11-18T23:45:19.581Z,8.80
2023-11-18T23:47:51.018Z,8.80
2023-11-18T23:50:18.016Z,8.70
2023-11-18T23:52:44.680Z,8.70
2023-11-18T23:55:14.611Z,8.70
2023-11-18T23:57:42.305Z,8.70
